createdAt,value
2022-08-25T00:01:56.212Z,18.90
2022-08-25T00:04:23.214Z,18.90
2022-08-25T00:06:49.492Z,18.90
2022-08-25T00:09:22.434Z,18.80
2022-08-25T00:11:48.776Z,18.80
2022-08-25T00:14:19.720Z,18.80
2022-08-25T00:16:46.147Z,18.90
2022-08-25T00:19:18.934Z,18.90
2022-08-25T00:21:45.494Z,18.90
2022-08-25T00:24:13.093Z,18.90
2022-08-25T00:26:41.456Z,19.00
2022-08-25T00:29:08.721Z,19.00
2022-08-25T00:31:38.819Z,19.10
2022-08-25T00:34:11.787Z,19.00
2022-08-25T00:36:38.336Z,19.10
2022-08-25T00:39:05.565Z,19.00
2022-08-25T00:41:33.853Z,19.00
2022-08-25T00:44:01.863Z,18.90
2022-08-25T00:46:32.071Z,18.90
2022-08-25T00:49:45.526Z,18.90
2022-08-25T00:52:58.755Z,18.90
2022-08-25T00:55:27.736Z,19.00
2022-08-25T00:57:57.119Z,18.90
2022-08-25T01:00:35.549Z,19.00
2022-08-25T01:03:01.937Z,19.10
2022-08-25T01:05:28.720Z,19.10
2022-08-25T01:07:58.518Z,19.10
2022-08-25T01:10:25.902Z,19.10
2022-08-25T01:12:52.324Z,19.10
2022-08-25T01:15:18.941Z,19.10
2022-08-25T01:17:53.442Z,19.10
2022-08-25T01:20:22.353Z,19.00
2022-08-25T01:22:54.972Z,18.90
2022-08-25T01:26:30.061Z,18.90
2022-08-25T01:29:15.855Z,18.90
2022-08-25T01:31:42.267Z,18.80
2022-08-25T01:34:08.910Z,18.70
2022-08-25T01:36:35.885Z,18.80
2022-08-25T01:39:02.175Z,18.70
2022-08-25T01:41:50.530Z,18.60
2022-08-25T01:44:18.636Z,18.70
2022-08-25T01:46:44.928Z,18.60
2022-08-25T01:49:11.266Z,18.60
2022-08-25T01:51:42.208Z,18.60
2022-08-25T01:54:08.452Z,18.90
2022-08-25T01:56:34.731Z,18.90
2022-08-25T01:59:00.966Z,18.90
2022-08-25T02:01:27.884Z,19.00
2022-08-25T02:03:55.311Z,19.00
2022-08-25T02:06:32.052Z,19.00
2022-08-25T02:09:04.937Z,19.00
2022-08-25T02:11:31.784Z,19.00
2022-08-25T02:13:58.642Z,19.00
2022-08-25T02:16:27.943Z,19.10
2022-08-25T02:18:55.286Z,19.00
2022-08-25T02:21:21.852Z,18.90
2022-08-25T02:23:48.169Z,18.90
2022-08-25T02:26:18.756Z,18.80
2022-08-25T02:28:48.234Z,18.80
2022-08-25T02:31:14.673Z,18.80
2022-08-25T02:33:40.916Z,18.80
2022-08-25T02:36:07.236Z,18.70
2022-08-25T02:38:33.596Z,18.70
2022-08-25T02:41:00.617Z,18.70
2022-08-25T02:43:27.182Z,18.80
2022-08-25T02:45:54.763Z,18.70
2022-08-25T02:48:21.140Z,19.00
2022-08-25T02:50:51.088Z,19.10
2022-08-25T02:53:20.250Z,19.10
2022-08-25T02:55:47.411Z,19.10
2022-08-25T02:58:14.571Z,19.00
2022-08-25T03:00:40.934Z,19.00
2022-08-25T03:03:09.455Z,18.70
2022-08-25T03:05:35.701Z,18.70
2022-08-25T03:08:02.652Z,18.80
2022-08-25T03:10:28.982Z,18.90
2022-08-25T03:12:55.228Z,18.90
2022-08-25T03:15:23.605Z,18.90
2022-08-25T03:17:50.609Z,18.80
2022-08-25T03:20:18.582Z,18.80
2022-08-25T03:22:45.016Z,18.80
2022-08-25T03:25:29.609Z,18.80
2022-08-25T03:27:55.857Z,18.90
2022-08-25T03:30:22.068Z,18.90
2022-08-25T03:32:48.334Z,18.80
2022-08-25T03:35:14.585Z,18.80
2022-08-25T03:37:40.866Z,18.80
2022-08-25T03:40:09.543Z,18.80
2022-08-25T03:42:45.341Z,18.80
2022-08-25T03:45:13.576Z,18.70
2022-08-25T03:47:39.970Z,18.60
2022-08-25T03:50:08.044Z,18.60
2022-08-25T03:52:38.959Z,18.60
2022-08-25T03:55:10.118Z,18.70
2022-08-25T03:57:36.449Z,18.70
2022-08-25T04:00:08.352Z,18.70
2022-08-25T04:02:34.667Z,18.60
2022-08-25T04:05:00.999Z,18.60
2022-08-25T04:07:27.296Z,18.50
2022-08-25T04:09:56.106Z,18.50
2022-08-25T04:12:22.544Z,18.40
2022-08-25T04:14:50.243Z,18.50
2022-08-25T04:17:16.812Z,18.50
2022-08-25T04:19:43.132Z,16.80
2022-08-25T04:22:09.868Z,18.60
2022-08-25T04:24:36.142Z,18.60
2022-08-25T04:27:02.515Z,18.70
2022-08-25T04:29:28.751Z,18.80
2022-08-25T04:31:55.137Z,18.80
2022-08-25T04:34:30.793Z,18.80
2022-08-25T04:37:02.545Z,18.90
2022-08-25T04:39:28.937Z,18.90
2022-08-25T04:41:57.236Z,19.00
2022-08-25T04:44:23.513Z,19.00
2022-08-25T04:46:49.771Z,19.00
2022-08-25T04:49:16.066Z,19.10
2022-08-25T04:51:42.350Z,19.10
2022-08-25T04:54:11.380Z,19.30
2022-08-25T04:56:39.891Z,19.40
2022-08-25T04:59:09.369Z,19.50
2022-08-25T05:01:35.751Z,19.70
2022-08-25T05:04:03.824Z,19.80
2022-08-25T05:06:30.293Z,19.90
2022-08-25T05:08:57.137Z,20.00
2022-08-25T05:11:23.668Z,20.20
2022-08-25T05:13:51.878Z,20.30
2022-08-25T05:16:19.637Z,20.30
2022-08-25T05:18:46.052Z,20.20
2022-08-25T05:21:15.179Z,20.30
2022-08-25T05:23:41.757Z,20.20
2022-08-25T05:26:10.200Z,20.10
2022-08-25T05:28:40.980Z,20.20
2022-08-25T05:31:08.895Z,20.30
2022-08-25T05:33:35.772Z,20.40
2022-08-25T05:36:02.371Z,20.60
2022-08-25T05:38:29.279Z,20.70
2022-08-25T05:40:59.451Z,20.80
2022-08-25T05:43:25.828Z,20.70
2022-08-25T05:45:57.896Z,20.60
2022-08-25T05:48:24.612Z,20.70
2022-08-25T05:50:57.692Z,21.00
2022-08-25T05:53:24.522Z,21.20
2022-08-25T05:55:51.453Z,21.20
2022-08-25T05:58:17.833Z,21.10
2022-08-25T06:00:44.274Z,21.20
2022-08-25T06:03:10.900Z,21.40
2022-08-25T06:05:37.327Z,21.30
2022-08-25T06:08:03.792Z,21.40
2022-08-25T06:10:30.288Z,21.70
2022-08-25T06:12:56.804Z,21.40
2022-08-25T06:15:24.844Z,21.20
2022-08-25T06:17:51.405Z,21.60
2022-08-25T06:20:19.677Z,21.70
2022-08-25T06:22:49.118Z,21.90
2022-08-25T06:25:17.958Z,21.90
2022-08-25T06:27:44.997Z,21.70
2022-08-25T06:30:14.943Z,21.70
2022-08-25T06:32:44.574Z,22.00
2022-08-25T06:35:14.482Z,22.10
2022-08-25T06:37:41.844Z,22.10
2022-08-25T06:40:08.754Z,22.40
2022-08-25T06:42:35.361Z,20.40
2022-08-25T06:45:01.630Z,22.00
2022-08-25T06:47:27.917Z,21.90
2022-08-25T06:49:54.229Z,21.90
2022-08-25T06:52:20.476Z,22.20
2022-08-25T06:54:47.655Z,22.30
2022-08-25T06:57:15.710Z,22.60
2022-08-25T06:59:42.134Z,22.70
2022-08-25T07:02:09.653Z,22.80
2022-08-25T07:04:36.218Z,22.80
2022-08-25T07:07:02.760Z,22.80
2022-08-25T07:09:29.095Z,23.20
2022-08-25T07:11:55.910Z,23.10
2022-08-25T07:14:22.323Z,23.20
2022-08-25T07:16:50.230Z,23.40
2022-08-25T07:19:20.145Z,23.10
2022-08-25T07:21:49.038Z,23.50
2022-08-25T07:24:16.119Z,23.60
2022-08-25T07:26:43.766Z,23.60
2022-08-25T07:29:33.179Z,23.70
2022-08-25T07:32:06.079Z,23.80
2022-08-25T07:34:51.947Z,23.60
2022-08-25T07:53:51.930Z,23.40
2022-08-25T07:56:20.297Z,24.50
2022-08-25T07:58:46.848Z,25.20
2022-08-25T08:01:18.651Z,26.60
2022-08-25T08:03:50.918Z,26.70
2022-08-25T08:06:21.819Z,27.00
2022-08-25T08:08:49.878Z,27.40
2022-08-25T08:11:45.523Z,28.10
2022-08-25T08:14:21.564Z,28.00
2022-08-25T08:16:47.874Z,27.80
2022-08-25T08:19:14.198Z,28.00
2022-08-25T08:21:41.021Z,28.10
2022-08-25T08:24:14.867Z,28.40
2022-08-25T08:26:59.195Z,28.90
2022-08-25T08:29:27.205Z,29.10
2022-08-25T08:31:53.553Z,30.30
2022-08-25T08:34:19.944Z,31.30
2022-08-25T08:36:52.987Z,29.80
2022-08-25T08:39:19.552Z,28.80
2022-08-25T08:44:30.226Z,28.20
2022-08-25T08:47:11.261Z,28.10
2022-08-25T08:50:32.713Z,27.60
2022-08-25T08:53:22.178Z,27.20
2022-08-25T08:55:56.589Z,26.60
2022-08-25T08:59:16.742Z,26.30
2022-08-25T09:01:54.312Z,26.10
2022-08-25T09:04:48.365Z,26.40
2022-08-25T09:07:18.546Z,26.50
2022-08-25T09:09:47.637Z,26.20
2022-08-25T09:19:23.370Z,26.20
2022-08-25T09:22:43.858Z,26.40
2022-08-25T09:25:48.780Z,27.60
2022-08-25T09:29:50.887Z,28.70
2022-08-25T09:32:17.089Z,28.70
2022-08-25T09:34:52.203Z,29.70
2022-08-25T09:37:18.975Z,30.20
2022-08-25T09:39:47.561Z,31.10
2022-08-25T09:42:13.907Z,31.80
2022-08-25T09:44:43.058Z,31.70
2022-08-25T09:47:43.113Z,30.50
2022-08-25T09:50:18.490Z,30.70
2022-08-25T09:52:45.823Z,31.00
2022-08-25T09:55:33.928Z,30.90
2022-08-25T09:58:00.563Z,31.10
2022-08-25T10:00:33.050Z,31.20
2022-08-25T10:03:24.845Z,31.30
2022-08-25T10:06:13.569Z,32.40
2022-08-25T10:08:59.809Z,32.60
2022-08-25T10:11:43.641Z,33.50
2022-08-25T10:21:07.529Z,32.40
2022-08-25T10:23:37.120Z,31.50
2022-08-25T10:26:16.323Z,30.90
2022-08-25T10:34:52.580Z,31.20
2022-08-25T10:42:46.375Z,30.10
2022-08-25T10:45:43.744Z,30.70
2022-08-25T10:49:03.677Z,31.90
2022-08-25T10:51:56.022Z,31.20
2022-08-25T10:54:47.273Z,31.10
2022-08-25T10:57:35.756Z,31.60
2022-08-25T11:00:22.665Z,31.40
2022-08-25T11:09:47.406Z,31.90
2022-08-25T11:12:26.956Z,30.90
2022-08-25T11:14:58.648Z,31.10
2022-08-25T11:18:14.598Z,30.80
2022-08-25T11:20:57.406Z,31.40
2022-08-25T11:23:57.037Z,31.30
2022-08-25T11:26:31.908Z,31.70
2022-08-25T11:29:05.833Z,32.40
2022-08-25T11:31:39.711Z,31.70
2022-08-25T11:34:10.577Z,29.80
2022-08-25T11:36:40.030Z,29.80
2022-08-25T11:39:44.645Z,29.60
2022-08-25T11:46:07.884Z,29.50
2022-08-25T11:48:57.402Z,31.30
2022-08-25T11:51:43.370Z,31.10
2022-08-25T11:54:34.719Z,31.10
2022-08-25T11:57:05.872Z,30.70
2022-08-25T12:06:25.520Z,30.70
2022-08-25T12:08:53.967Z,31.90
2022-08-25T12:12:02.226Z,31.80
2022-08-25T12:14:42.112Z,31.40
2022-08-25T12:17:23.560Z,31.40
2022-08-25T12:19:55.453Z,31.60
2022-08-25T12:22:50.871Z,31.60
2022-08-25T12:25:31.873Z,31.40
2022-08-25T12:28:35.054Z,31.10
2022-08-25T12:31:07.127Z,30.60
2022-08-25T12:34:15.815Z,30.70
2022-08-25T12:36:57.694Z,29.90
2022-08-25T12:39:30.364Z,30.10
2022-08-25T12:42:05.947Z,30.50
2022-08-25T12:45:16.180Z,30.90
2022-08-25T12:47:47.594Z,31.70
2022-08-25T12:54:11.741Z,31.60
2022-08-25T12:56:45.390Z,31.50
2022-08-25T12:59:48.788Z,31.00
2022-08-25T13:09:22.280Z,30.10
2022-08-25T13:12:19.497Z,30.00
2022-08-25T13:14:50.709Z,29.60
2022-08-25T13:17:35.817Z,29.60
2022-08-25T13:20:16.934Z,30.30
2022-08-25T13:27:26.595Z,30.50
2022-08-25T13:29:56.263Z,30.20
2022-08-25T13:32:36.185Z,29.50
2022-08-25T13:35:19.949Z,29.70
2022-08-25T13:37:46.903Z,29.90
2022-08-25T13:40:34.971Z,30.00
2022-08-25T13:43:10.686Z,30.20
2022-08-25T13:45:45.554Z,30.10
2022-08-25T13:48:21.197Z,29.90
2022-08-25T13:50:51.808Z,29.90
2022-08-25T13:53:23.524Z,30.20
2022-08-25T13:56:00.940Z,30.10
2022-08-25T13:58:44.844Z,29.60
2022-08-25T14:01:22.829Z,29.60
2022-08-25T14:04:51.729Z,30.00
2022-08-25T14:07:33.728Z,30.50
2022-08-25T14:10:29.246Z,30.70
2022-08-25T14:13:31.825Z,30.80
2022-08-25T14:16:21.695Z,30.50
2022-08-25T14:18:55.965Z,29.80
2022-08-25T14:21:31.447Z,29.30
2022-08-25T14:23:57.803Z,28.90
2022-08-25T14:26:26.670Z,28.90
2022-08-25T14:28:53.073Z,29.20
2022-08-25T14:31:53.137Z,29.60
2022-08-25T14:34:22.230Z,29.90
2022-08-25T14:36:50.741Z,30.00
2022-08-25T14:39:17.482Z,30.00
2022-08-25T14:41:48.675Z,30.10
2022-08-25T14:44:20.546Z,30.10
2022-08-25T14:46:52.402Z,29.70
2022-08-25T14:49:26.907Z,29.80
2022-08-25T14:51:53.262Z,29.50
2022-08-25T14:54:19.776Z,29.80
2022-08-25T14:56:49.771Z,29.80
2022-08-25T14:59:16.185Z,29.80
2022-08-25T15:01:43.684Z,29.80
2022-08-25T15:04:16.141Z,29.70
2022-08-25T15:06:44.606Z,30.00
2022-08-25T15:09:12.470Z,29.80
2022-08-25T15:11:50.541Z,29.90
2022-08-25T15:14:18.811Z,29.70
2022-08-25T15:16:56.221Z,29.80
2022-08-25T15:19:24.198Z,29.70
2022-08-25T15:21:51.605Z,29.80
2022-08-25T15:24:19.680Z,29.80
2022-08-25T15:26:58.452Z,29.80
2022-08-25T15:29:29.849Z,29.60
2022-08-25T15:31:57.201Z,29.30
2022-08-25T15:34:23.986Z,29.20
2022-08-25T15:36:50.529Z,29.20
2022-08-25T15:39:17.969Z,29.20
2022-08-25T15:41:52.067Z,29.10
2022-08-25T15:44:18.610Z,29.10
2022-08-25T15:46:49.565Z,29.00
2022-08-25T15:49:23.359Z,28.80
2022-08-25T15:51:52.882Z,28.80
2022-08-25T15:54:22.315Z,28.60
2022-08-25T15:56:48.672Z,28.50
2022-08-25T15:59:15.902Z,28.40
2022-08-25T16:01:44.375Z,28.30
2022-08-25T16:04:14.459Z,28.30
2022-08-25T16:06:42.190Z,28.40
2022-08-25T16:09:08.565Z,28.40
2022-08-25T16:11:35.127Z,28.40
2022-08-25T16:14:02.579Z,28.30
2022-08-25T16:16:30.315Z,28.30
2022-08-25T16:18:57.388Z,28.30
2022-08-25T16:21:29.933Z,28.30
2022-08-25T16:24:01.878Z,28.30
2022-08-25T16:26:31.245Z,28.30
2022-08-25T16:28:58.380Z,28.30
2022-08-25T16:31:25.775Z,28.20
2022-08-25T16:33:56.128Z,28.20
2022-08-25T16:36:27.110Z,28.20
2022-08-25T16:38:57.834Z,28.20
2022-08-25T16:41:33.284Z,28.10
2022-08-25T16:44:06.463Z,28.00
2022-08-25T16:46:33.471Z,27.80
2022-08-25T16:49:01.338Z,27.80
2022-08-25T16:51:32.567Z,27.80
2022-08-25T16:54:22.376Z,27.70
2022-08-25T16:56:53.763Z,27.50
2022-08-25T16:59:22.129Z,27.40
2022-08-25T17:01:50.592Z,27.30
2022-08-25T17:04:17.482Z,27.20
2022-08-25T17:06:49.525Z,27.10
2022-08-25T17:09:23.050Z,27.00
2022-08-25T17:11:55.951Z,26.80
2022-08-25T17:14:23.350Z,26.70
2022-08-25T17:16:54.849Z,26.60
2022-08-25T17:19:21.828Z,26.50
2022-08-25T17:21:51.669Z,26.40
2022-08-25T17:24:18.148Z,26.20
2022-08-25T17:26:45.657Z,26.10
2022-08-25T17:29:12.228Z,26.00
2022-08-25T17:31:39.624Z,26.00
2022-08-25T17:34:09.901Z,25.90
2022-08-25T17:36:37.311Z,25.70
2022-08-25T17:39:03.989Z,25.70
2022-08-25T17:41:30.305Z,25.60
2022-08-25T17:43:58.392Z,25.50
2022-08-25T17:46:25.531Z,25.40
2022-08-25T17:48:52.197Z,25.30
2022-08-25T17:51:18.434Z,25.20
2022-08-25T17:53:44.782Z,25.30
2022-08-25T17:56:17.071Z,25.20
2022-08-25T17:58:46.055Z,25.20
2022-08-25T18:01:19.390Z,25.10
2022-08-25T18:03:49.267Z,24.90
2022-08-25T18:06:17.022Z,24.90
2022-08-25T18:08:45.101Z,24.70
2022-08-25T18:11:20.228Z,24.70
2022-08-25T18:13:47.701Z,24.50
2022-08-25T18:16:18.501Z,24.50
2022-08-25T18:18:48.274Z,24.30
2022-08-25T18:21:16.294Z,24.30
2022-08-25T18:23:43.260Z,24.20
2022-08-25T18:26:12.838Z,24.20
2022-08-25T18:28:40.205Z,24.10
2022-08-25T18:31:11.823Z,24.20
2022-08-25T18:33:41.823Z,24.20
2022-08-25T18:36:11.413Z,24.40
2022-08-25T18:38:57.913Z,24.30
2022-08-25T18:41:29.231Z,24.30
2022-08-25T18:43:57.401Z,24.30
2022-08-25T18:46:25.641Z,24.20
2022-08-25T18:48:54.954Z,24.20
2022-08-25T18:51:22.978Z,24.00
2022-08-25T18:53:54.728Z,23.90
2022-08-25T18:56:27.415Z,23.90
2022-08-25T18:58:54.945Z,23.80
2022-08-25T19:01:24.993Z,23.80
2022-08-25T19:03:52.054Z,23.80
2022-08-25T19:06:19.705Z,23.60
2022-08-25T19:08:48.823Z,23.60
2022-08-25T19:11:16.137Z,23.50
2022-08-25T19:13:45.065Z,23.50
2022-08-25T19:16:29.500Z,23.40
2022-08-25T19:18:56.265Z,23.40
2022-08-25T19:21:25.086Z,23.40
2022-08-25T19:23:52.603Z,23.40
2022-08-25T19:26:19.105Z,23.40
2022-08-25T19:28:48.628Z,23.40
2022-08-25T19:31:25.604Z,23.40
2022-08-25T19:33:52.699Z,23.40
2022-08-25T19:36:43.713Z,23.40
2022-08-25T19:39:10.790Z,23.40
2022-08-25T19:41:38.720Z,23.40
2022-08-25T19:44:08.573Z,23.30
2022-08-25T19:46:36.902Z,23.30
2022-08-25T19:49:12.268Z,23.20
2022-08-25T19:51:40.666Z,23.20
2022-08-25T19:54:09.107Z,23.10
2022-08-25T19:56:38.154Z,23.10
2022-08-25T19:59:11.182Z,23.00
2022-08-25T20:01:37.837Z,22.90
2022-08-25T20:04:06.692Z,22.90
2022-08-25T20:06:34.463Z,22.80
2022-08-25T20:09:01.955Z,22.70
2022-08-25T20:11:28.489Z,22.60
2022-08-25T20:13:54.906Z,22.50
2022-08-25T20:16:23.765Z,22.40
2022-08-25T20:18:51.777Z,22.20
2022-08-25T20:21:18.143Z,22.20
2022-08-25T20:24:03.451Z,22.10
2022-08-25T20:26:30.523Z,22.00
2022-08-25T20:28:56.844Z,21.90
2022-08-25T20:31:23.178Z,21.80
2022-08-25T20:33:50.257Z,21.70
2022-08-25T20:36:18.703Z,21.60
2022-08-25T20:38:45.350Z,21.50
2022-08-25T20:41:11.999Z,21.50
2022-08-25T20:43:39.445Z,21.40
2022-08-25T20:46:07.820Z,21.30
2022-08-25T20:48:34.829Z,21.50
2022-08-25T20:51:08.515Z,21.60
2022-08-25T20:53:36.324Z,21.70
2022-08-25T20:56:10.850Z,21.70
2022-08-25T20:58:38.134Z,21.70
2022-08-25T21:01:09.281Z,21.80
2022-08-25T21:03:36.873Z,21.80
2022-08-25T21:06:09.375Z,21.90
2022-08-25T21:08:39.881Z,21.90
2022-08-25T21:11:14.881Z,21.90
2022-08-25T21:13:41.377Z,21.80
2022-08-25T21:16:07.923Z,21.90
2022-08-25T21:18:35.502Z,21.90
2022-08-25T21:21:10.453Z,21.90
2022-08-25T21:23:38.621Z,22.00
2022-08-25T21:26:05.824Z,22.00
2022-08-25T21:28:34.780Z,21.90
2022-08-25T21:31:01.801Z,21.80
2022-08-25T21:33:30.891Z,21.60
2022-08-25T21:35:57.874Z,21.30
2022-08-25T21:38:24.152Z,21.30
2022-08-25T21:40:50.685Z,21.40
2022-08-25T21:43:18.651Z,21.50
2022-08-25T21:45:47.085Z,20.80
2022-08-25T21:48:14.630Z,21.00
2022-08-25T21:50:41.211Z,20.70
2022-08-25T21:53:08.860Z,20.90
2022-08-25T21:55:39.751Z,20.90
2022-08-25T21:58:09.228Z,20.70
2022-08-25T22:00:36.158Z,21.00
2022-08-25T22:03:02.457Z,20.90
2022-08-25T22:05:28.771Z,21.10
2022-08-25T22:07:56.628Z,20.90
2022-08-25T22:10:24.077Z,21.10
2022-08-25T22:12:50.408Z,21.00
2022-08-25T22:15:16.796Z,20.60
2022-08-25T22:17:46.086Z,20.90
2022-08-25T22:20:16.848Z,20.80
2022-08-25T22:22:43.181Z,20.70
2022-08-25T22:25:09.665Z,20.70
2022-08-25T22:27:35.980Z,20.60
2022-08-25T22:30:08.080Z,20.50
2022-08-25T22:32:34.795Z,20.40
2022-08-25T22:35:01.283Z,20.40
2022-08-25T22:37:27.634Z,20.50
2022-08-25T22:39:56.724Z,20.70
2022-08-25T22:42:25.636Z,20.90
2022-08-25T22:44:54.100Z,20.70
2022-08-25T22:47:21.691Z,20.70
2022-08-25T22:49:48.856Z,20.70
2022-08-25T22:52:15.288Z,20.60
2022-08-25T22:54:41.631Z,20.60
2022-08-25T22:57:07.901Z,20.60
2022-08-25T22:59:34.198Z,20.50
2022-08-25T23:02:00.478Z,20.40
2022-08-25T23:04:26.833Z,20.40
2022-08-25T23:06:53.031Z,20.40
2022-08-25T23:09:20.734Z,20.40
2022-08-25T23:11:48.637Z,20.40
2022-08-25T23:14:18.491Z,20.30
2022-08-25T23:16:44.814Z,20.20
2022-08-25T23:19:14.019Z,20.10
2022-08-25T23:22:00.595Z,20.10
2022-08-25T23:24:30.353Z,20.20
2022-08-25T23:26:58.801Z,20.20
2022-08-25T23:29:25.177Z,20.20
2022-08-25T23:31:52.124Z,20.20
2022-08-25T23:34:21.383Z,20.30
2022-08-25T23:36:47.630Z,20.30
2022-08-25T23:39:13.915Z,20.30
2022-08-25T23:41:41.801Z,20.20
2022-08-25T23:44:11.570Z,20.20
2022-08-25T23:46:38.696Z,20.10
2022-08-25T23:49:06.082Z,19.90
2022-08-25T23:51:37.214Z,19.90
2022-08-25T23:54:06.479Z,20.70
2022-08-25T23:56:35.594Z,19.80
2022-08-25T23:59:03.804Z,19.70
